< < Back
Terminal Aerodrome Forecast


Current Version              Previous Versions:   1  2  3  4  5  6  7  8  9  

Terminal Aerodrome Forecast

322
FTUS42 KGSP 202300
TAFCLT
TAF
KCLT 202337Z 2100/2124 04009KT P6SM SCT060 SCT250
     FM210600 03006KT P6SM SCT250=



Latest METAR

630
SAUS70 KWBC 210400 RRA
MTRCLT
METAR KCLT 210352Z 04006KT 10SM CLR 14/02 A3019 RMK AO2 SLP221 T01390022
$


USA.gov is the U.S. government's official web portal to all federal, state and local government web resources and services.